Time;durP1;ratioP1;P1;durP2;ratioP2;P2;SDS_P1;SDS_P2;PMS_P1;PMS_P2;Temp;Humidity;BMP_temperature;BMP_pressure;BME280_temperature;BME280_humidity;BME280_pressure;Samples;Min_cycle;Max_cycle;Signal;HPM_P1;HPM_P2
2021/06/25 00:03:28;;;;;;;166.73;87.45;;;;;;;24.93;57.01;95045.50;5660320;22;20108;-82
2021/06/25 00:05:53;;;;;;;173.00;99.82;;;;;;;24.82;57.80;95038.94;5075210;22;20049;-80
2021/06/25 00:08:19;;;;;;;109.38;55.25;;;;;;;24.76;57.92;95038.34;5027113;28;20033;-80
2021/06/25 00:10:44;;;;;;;61.88;23.52;;;;;;;24.74;56.81;95032.56;5025077;28;20080;-80
2021/06/25 00:13:10;;;;;;;150.68;84.25;;;;;;;24.75;57.92;95046.63;5023812;28;20030;-82
2021/06/25 00:15:35;;;;;;;105.60;53.55;;;;;;;24.68;57.75;95038.34;5027196;28;20041;-81
2021/06/25 00:18:08;;;;;;;135.90;61.78;;;;;;;24.60;58.11;95045.25;5009069;28;20038;-82
2021/06/25 00:20:33;;;;;;;98.10;46.40;;;;;;;24.58;58.08;95049.31;5030452;28;20033;-82
2021/06/25 00:23:02;;;;;;;69.97;24.65;;;;;;;24.53;58.13;95055.56;5018095;28;20056;-82
2021/06/25 00:25:28;;;;;;;58.28;25.38;;;;;;;24.48;58.27;95061.03;5018870;28;20082;-82
2021/06/25 00:27:53;;;;;;;98.75;50.67;;;;;;;24.41;58.37;95056.22;4993877;28;20037;-80
2021/06/25 00:30:19;;;;;;;97.28;37.42;;;;;;;24.36;58.76;95066.97;5008954;28;20033;-81
2021/06/25 00:32:45;;;;;;;64.50;25.58;;;;;;;24.27;58.75;95047.56;4992009;28;20033;-81
2021/06/25 00:35:11;;;;;;;67.32;23.30;;;;;;;24.25;59.00;95050.53;5011965;28;20025;-80
2021/06/25 00:37:36;;;;;;;75.63;27.23;;;;;;;24.23;59.29;95051.94;5026504;28;20039;-80
2021/06/25 00:40:03;;;;;;;62.65;22.35;;;;;;;24.23;59.55;95051.94;4991712;28;20041;-80
2021/06/25 00:42:29;;;;;;;76.50;26.00;;;;;;;24.22;59.97;95055.69;5016130;28;20048;-80
2021/06/25 00:44:54;;;;;;;124.10;72.10;;;;;;;24.19;59.62;95045.69;5015823;28;20038;-80
2021/06/25 00:47:20;;;;;;;183.60;119.35;;;;;;;24.14;59.76;95053.81;5027564;28;20096;-80
2021/06/25 00:49:45;;;;;;;277.58;192.07;;;;;;;24.07;59.95;95051.59;4993323;28;20037;-80
2021/06/25 00:52:16;;;;;;;157.50;94.03;;;;;;;24.01;60.27;95054.72;5025123;28;20059;-80
2021/06/25 00:54:42;;;;;;;140.47;71.50;;;;;;;23.92;60.48;95047.53;5009477;28;20025;-81
2021/06/25 00:57:08;;;;;;;153.32;94.28;;;;;;;23.89;60.49;95045.47;4998396;28;20402;-80
2021/06/25 00:59:33;;;;;;;171.70;105.03;;;;;;;23.87;60.70;95039.69;5025265;28;20041;-81
2021/06/25 01:01:59;;;;;;;183.77;107.13;;;;;;;23.85;61.00;95041.88;5015908;28;20041;-80
2021/06/25 01:04:24;;;;;;;53.63;21.58;;;;;;;23.86;60.45;95038.13;5009580;28;20049;-80
2021/06/25 01:06:59;;;;;;;57.50;16.10;;;;;;;23.89;60.15;95045.47;5024617;28;20030;-80
2021/06/25 01:09:24;;;;;;;38.90;10.80;;;;;;;23.91;59.42;95040.63;5004101;28;20053;-81
2021/06/25 01:11:49;;;;;;;42.88;12.20;;;;;;;23.94;59.67;95050.66;5016030;28;20029;-81
2021/06/25 01:14:15;;;;;;;50.80;12.50;;;;;;;23.95;59.50;95054.88;5023810;28;20092;-81
2021/06/25 01:16:40;;;;;;;37.35;11.45;;;;;;;23.88;59.12;95053.75;4998696;23;20043;-81
2021/06/25 01:19:13;;;;;;;47.33;13.05;;;;;;;23.83;59.44;95059.22;4979141;28;20039;-80
2021/06/25 01:21:40;;;;;;;39.47;10.48;;;;;;;23.83;59.33;95049.38;5026958;23;20117;-80
2021/06/25 01:24:06;;;;;;;40.65;9.88;;;;;;;23.79;59.67;95060.94;5016582;28;20045;-80
2021/06/25 01:26:32;;;;;;;49.78;9.60;;;;;;;23.77;59.84;95044.53;5010712;28;20031;-79
2021/06/25 01:28:57;;;;;;;28.02;10.25;;;;;;;23.79;60.13;95051.09;4987878;28;20429;-79
2021/06/25 01:31:28;;;;;;;34.58;10.25;;;;;;;23.81;60.18;95056.88;4986451;28;20425;-82
2021/06/25 01:33:54;;;;;;;30.55;10.38;;;;;;;23.81;60.55;95056.88;4971484;28;20038;-81
2021/06/25 01:36:19;;;;;;;31.67;10.15;;;;;;;23.77;60.10;95055.94;4988128;28;20482;-81
2021/06/25 01:38:46;;;;;;;39.85;9.95;;;;;;;23.78;60.08;95051.41;5007550;28;20053;-81
2021/06/25 01:41:17;;;;;;;45.15;10.07;;;;;;;23.74;59.97;95056.53;4971946;28;20030;-81
2021/06/25 01:43:43;;;;;;;36.33;10.27;;;;;;;23.69;59.91;95048.72;4989018;28;20060;-81
2021/06/25 01:46:11;;;;;;;33.97;9.48;;;;;;;23.66;60.31;95049.34;5034527;23;20540;-80
2021/06/25 01:48:37;;;;;;;33.63;8.73;;;;;;;23.60;59.90;95040.75;4991484;28;20049;-80
2021/06/25 01:51:02;;;;;;;31.65;9.68;;;;;;;23.59;60.33;95038.38;5024227;28;20026;-81
2021/06/25 01:53:28;;;;;;;40.58;9.85;;;;;;;23.60;60.06;95030.13;5013713;28;20045;-80
2021/06/25 01:55:53;;;;;;;39.72;10.13;;;;;;;23.57;59.79;95036.03;5014390;28;20022;-81
2021/06/25 01:58:29;;;;;;;52.95;9.20;;;;;;;23.58;60.12;95036.81;4999457;28;20033;-81
2021/06/25 02:00:55;;;;;;;34.42;9.35;;;;;;;23.55;60.28;95032.09;5009871;28;20042;-81
2021/06/25 02:03:20;;;;;;;41.78;10.18;;;;;;;23.51;60.85;95039.13;5017516;28;20026;-80
2021/06/25 02:05:46;;;;;;;47.33;10.25;;;;;;;23.48;61.11;95034.44;5019775;28;20030;-81
2021/06/25 02:08:32;;;;;;;40.85;9.80;;;;;;;23.45;60.97;95037.69;5000845;28;20041;-80
2021/06/25 02:10:58;;;;;;;39.42;9.93;;;;;;;23.40;61.13;95032.50;5020401;28;20046;-81
2021/06/25 02:13:23;;;;;;;53.00;11.10;;;;;;;23.36;61.31;95040.31;5020662;28;20034;-80
2021/06/25 02:15:49;;;;;;;48.80;10.70;;;;;;;23.31;61.67;95038.59;5019399;28;20092;-82
2021/06/25 02:18:14;;;;;;;34.92;10.23;;;;;;;23.28;61.97;95036.53;5019199;28;20045;-82
2021/06/25 02:20:39;;;;;;;36.10;10.43;;;;;;;23.24;61.55;95032.91;4999584;28;20037;-80
2021/06/25 02:23:05;;;;;;;45.25;10.32;;;;;;;23.23;61.67;95035.88;5017661;28;20022;-82
2021/06/25 02:25:36;;;;;;;53.50;10.18;;;;;;;23.20;62.36;95045.25;5016385;28;20046;-81
2021/06/25 02:28:02;;;;;;;30.17;9.55;;;;;;;23.17;62.47;95035.25;5017760;28;20037;-82
2021/06/25 02:30:27;;;;;;;45.22;9.63;;;;;;;23.15;62.38;95048.03;5022701;23;20524;-79
2021/06/25 02:32:53;;;;;;;46.95;11.20;;;;;;;23.09;62.67;95040.50;5015428;28;20076;-81
2021/06/25 02:35:18;;;;;;;52.42;11.88;;;;;;;23.05;62.80;95040.31;4997879;28;20182;-82
2021/06/25 02:37:44;;;;;;;78.30;28.58;;;;;;;23.02;62.59;95040.94;5015199;28;20037;-80
2021/06/25 02:40:10;;;;;;;94.68;44.05;;;;;;;22.98;62.67;95034.69;5014647;28;20277;-80
2021/06/25 02:42:35;;;;;;;101.82;54.13;;;;;;;22.94;62.51;95029.22;5016384;28;20556;-80
2021/06/25 02:45:02;;;;;;;108.32;51.05;;;;;;;22.89;62.72;95036.50;5016404;28;20034;-81
2021/06/25 02:47:32;;;;;;;79.95;39.03;;;;;;;22.83;62.86;95038.50;5016182;28;20110;-80
2021/06/25 02:49:57;;;;;;;91.00;39.08;;;;;;;22.75;62.78;95044.50;5015915;28;20038;-82
2021/06/25 02:52:23;;;;;;;54.30;20.42;;;;;;;22.65;63.24;95032.28;4999132;28;20040;-80
2021/06/25 02:54:49;;;;;;;47.40;19.67;;;;;;;22.60;62.88;95036.91;4981065;28;20029;-79
2021/06/25 02:57:14;;;;;;;61.42;20.35;;;;;;;22.56;63.42;95039.38;4996155;28;20099;-79
2021/06/25 02:59:40;;;;;;;68.82;22.40;;;;;;;22.62;63.32;95035.53;4979934;28;20042;-80
2021/06/25 03:02:06;;;;;;;67.95;26.60;;;;;;;22.64;63.43;95029.94;4984641;28;20034;-81
2021/06/25 03:04:31;;;;;;;56.03;23.02;;;;;;;22.67;63.74;95032.75;5019343;28;20509;-81
2021/06/25 03:07:01;;;;;;;51.45;20.75;;;;;;;22.74;63.28;95040.28;4998903;28;20038;-81
2021/06/25 03:09:29;;;;;;;45.65;15.60;;;;;;;22.67;62.96;95040.72;4998004;28;20042;-81
2021/06/25 03:11:55;;;;;;;48.38;14.10;;;;;;;22.79;62.79;95050.00;4981413;28;20132;-80
2021/06/25 03:14:20;;;;;;;37.28;10.80;;;;;;;22.82;62.00;95052.03;5016304;28;20048;-80
2021/06/25 03:16:46;;;;;;;43.70;10.57;;;;;;;22.88;62.46;95050.84;5015145;28;20494;-80
2021/06/25 03:19:11;;;;;;;42.03;10.52;;;;;;;23.02;62.25;95051.56;5016374;28;20399;-80
2021/06/25 03:21:36;;;;;;;60.17;13.77;;;;;;;23.15;62.07;95056.00;4999032;28;20045;-80
2021/06/25 03:24:02;;;;;;;42.95;13.98;;;;;;;23.23;61.72;95057.09;4998681;28;20038;-80
2021/06/25 03:29:45;;;;;;;73.90;21.77;;;;;;;23.44;60.99;95060.81;4955559;29;20086;-80
2021/06/25 03:32:10;;;;;;;80.70;24.00;;;;;;;23.51;60.60;95060.34;4950644;29;20039;-81
2021/06/25 03:34:36;;;;;;;75.93;26.77;;;;;;;23.58;60.26;95066.78;4952098;29;20098;-81
2021/06/25 03:37:01;;;;;;;76.63;27.25;;;;;;;23.70;60.25;95060.91;4934469;29;20035;-81
2021/06/25 03:39:33;;;;;;;67.32;25.02;;;;;;;23.83;60.03;95060.00;4931871;29;20092;-81
2021/06/25 03:41:58;;;;;;;81.47;24.92;;;;;;;23.95;59.61;95059.41;4930163;29;20145;-81
2021/06/25 03:44:27;;;;;;;84.07;26.70;;;;;;;24.10;59.18;95058.97;4948026;29;20032;-81
2021/06/25 03:46:52;;;;;;;91.30;33.45;;;;;;;24.26;58.78;95053.97;4916732;29;20098;-81
2021/06/25 03:49:17;;;;;;;84.78;32.58;;;;;;;24.40;57.92;95062.59;4948847;29;20044;-81
2021/06/25 03:51:43;;;;;;;101.50;39.35;;;;;;;24.58;57.71;95046.66;4931539;29;20126;-80
2021/06/25 03:54:08;;;;;;;85.43;32.90;;;;;;;24.75;56.76;95051.97;4914018;29;20541;-79
2021/06/25 03:56:36;;;;;;;99.55;36.83;;;;;;;24.96;56.63;95058.16;4915597;29;20035;-79
2021/06/25 03:59:01;;;;;;;93.90;40.42;;;;;;;25.11;56.09;95057.69;4930416;29;20036;-80
2021/06/25 04:01:27;;;;;;;80.47;34.95;;;;;;;25.35;55.74;95059.00;4947551;29;20102;-79
2021/06/25 04:03:52;;;;;;;77.20;30.85;;;;;;;25.67;54.94;95063.72;4917004;29;20148;-80
2021/06/25 04:06:18;;;;;;;84.35;22.15;;;;;;;26.49;52.73;95063.41;4899885;29;20054;-80
2021/06/25 04:09:08;;;;;;;63.53;16.70;;;;;;;27.77;49.20;95057.09;4947333;29;20069;-80
2021/06/25 04:11:34;;;;;;;50.47;13.43;;;;;;;28.69;46.64;95054.47;4931463;29;20086;-81
2021/06/25 04:13:59;;;;;;;51.20;12.63;;;;;;;29.59;44.86;95052.22;4929123;29;20036;-82
2021/06/25 04:16:24;;;;;;;51.38;11.25;;;;;;;30.51;42.32;95060.78;4935588;29;20039;-81
2021/06/25 04:18:53;;;;;;;29.50;9.27;;;;;;;31.42;40.01;95055.63;4954327;29;20031;-81
2021/06/25 04:21:21;;;;;;;46.33;9.38;;;;;;;32.18;38.01;95059.09;4950219;29;20047;-82
2021/06/25 04:23:47;;;;;;;42.22;9.93;;;;;;;33.14;37.20;95063.00;4947238;29;20040;-82
2021/06/25 04:26:12;;;;;;;47.38;10.20;;;;;;;33.87;35.19;95055.19;4949483;28;20483;-82
2021/06/25 04:28:38;;;;;;;48.13;9.65;;;;;;;34.62;34.08;95050.22;4932757;29;20597;-81
2021/06/25 04:31:03;;;;;;;54.58;10.45;;;;;;;35.24;32.59;95052.72;4933486;29;20031;-82
2021/06/25 04:33:29;;;;;;;56.78;12.18;;;;;;;35.96;31.29;95043.53;4951152;29;20527;-81
2021/06/25 04:35:54;;;;;;;63.67;10.73;;;;;;;36.67;30.47;95047.97;4950810;29;20031;-82
2021/06/25 04:38:20;;;;;;;52.97;13.95;;;;;;;37.28;29.15;95043.06;4931104;29;20050;-81
2021/06/25 04:40:46;;;;;;;60.90;14.65;;;;;;;38.08;27.88;95037.38;4939237;29;20046;-81
2021/06/25 04:43:12;;;;;;;54.13;11.80;;;;;;;38.66;26.57;95041.03;4931346;29;20039;-81
2021/06/25 04:45:38;;;;;;;40.95;10.48;;;;;;;39.25;25.71;95037.16;4927020;29;20102;-81
2021/06/25 04:48:34;;;;;;;35.38;10.15;;;;;;;39.96;24.63;95035.25;4915287;29;20108;-80
2021/06/25 04:51:10;;;;;;;57.70;13.02;;;;;;;40.59;24.48;95035.28;4950607;28;20077;-80
2021/06/25 04:53:38;;;;;;;44.53;9.98;;;;;;;41.44;23.08;95046.34;4952002;29;20099;-81
2021/06/25 04:56:04;;;;;;;44.92;11.00;;;;;;;42.11;22.69;95038.47;4930728;29;20063;-82
2021/06/25 04:58:29;;;;;;;53.85;11.32;;;;;;;42.57;21.70;95041.94;4931250;29;20043;-82
2021/06/25 05:00:58;;;;;;;52.35;10.77;;;;;;;42.99;21.24;95048.19;4946193;29;20066;-82
2021/06/25 05:03:30;;;;;;;46.45;9.63;;;;;;;43.43;20.34;95051.91;4928045;29;21002;-82
2021/06/25 05:05:56;;;;;;;50.88;10.57;;;;;;;43.94;19.74;95057.34;5081090;23;20666;-83
2021/06/25 05:08:21;;;;;;;49.45;10.73;;;;;;;44.24;19.41;95058.69;5025763;28;20761;-82
2021/06/25 05:10:47;;;;;;;45.88;10.27;;;;;;;44.53;19.40;95053.00;5021592;28;20033;-83
2021/06/25 05:13:15;;;;;;;49.85;10.05;;;;;;;45.01;18.82;95056.34;4995149;28;20042;-83
2021/06/25 05:15:40;;;;;;;43.88;10.75;;;;;;;45.47;18.42;95057.31;4971246;28;20312;-83
2021/06/25 05:18:19;;;;;;;43.53;10.45;;;;;;;45.76;17.75;95044.00;4999444;28;20044;-83
2021/06/25 05:20:51;;;;;;;40.40;9.98;;;;;;;46.15;17.40;95047.09;5008166;28;20046;-83
2021/06/25 05:23:20;;;;;;;38.33;9.70;;;;;;;46.42;17.34;95046.38;5016061;28;20108;-85
2021/06/25 05:25:46;;;;;;;68.78;10.80;;;;;;;46.80;16.86;95040.34;4994482;28;20112;-83
2021/06/25 05:28:13;;;;;;;29.27;8.75;;;;;;;47.07;17.03;95038.75;5026803;28;20264;-83
2021/06/25 05:30:38;;;;;;;44.88;9.13;;;;;;;47.32;16.35;95038.34;5029023;28;20038;-82
2021/06/25 05:33:05;;;;;;;42.00;9.25;;;;;;;47.62;16.26;95035.78;5029724;28;20098;-83
2021/06/25 05:35:31;;;;;;;39.65;9.35;;;;;;;47.80;16.03;95038.41;4995576;28;20060;-82
2021/06/25 05:37:59;;;;;;;49.10;9.13;;;;;;;48.06;15.63;95039.47;5025866;28;20041;-83
2021/06/25 05:40:34;;;;;;;53.13;10.23;;;;;;;48.35;15.57;95035.28;5025300;28;20030;-83
2021/06/25 05:42:59;;;;;;;40.90;8.38;;;;;;;47.92;15.96;95044.94;4991532;28;20082;-82
2021/06/25 05:45:27;;;;;;;34.25;7.22;;;;;;;48.28;15.74;95047.44;4974474;28;20047;-84
2021/06/25 05:47:53;;;;;;;44.22;9.05;;;;;;;48.61;15.13;95052.84;4991337;28;20039;-83
2021/06/25 05:50:19;;;;;;;34.00;7.43;;;;;;;48.88;15.25;95051.03;4987799;28;20038;-83
2021/06/25 05:52:45;;;;;;;50.40;8.25;;;;;;;48.93;14.93;95044.84;4956607;28;20061;-82
2021/06/25 05:55:11;;;;;;;38.42;8.13;;;;;;;49.28;14.36;95055.97;4960117;28;20038;-83
2021/06/25 05:57:37;;;;;;;31.83;7.40;;;;;;;49.26;14.83;95050.91;4956817;28;20039;-83
2021/06/25 06:00:04;;;;;;;37.33;7.07;;;;;;;49.79;14.34;95047.19;4981439;28;20188;-83
2021/06/25 06:02:36;;;;;;;37.10;7.93;;;;;;;50.03;13.96;95054.56;4989758;28;20054;-83
2021/06/25 06:05:01;;;;;;;37.42;8.07;;;;;;;50.16;14.41;95050.19;4992493;28;20030;-84
2021/06/25 06:07:30;;;;;;;39.70;8.27;;;;;;;50.25;14.53;95049.25;4973752;28;20477;-84
2021/06/25 06:09:55;;;;;;;33.70;8.63;;;;;;;50.26;13.75;95058.31;4967523;28;20031;-84
2021/06/25 06:12:30;;;;;;;23.30;6.50;;;;;;;50.06;14.21;95051.56;4988568;23;20579;-84
2021/06/25 06:14:55;;;;;;;28.08;6.50;;;;;;;49.78;14.69;95047.66;4989108;28;20054;-83
2021/06/25 06:17:23;;;;;;;30.75;8.30;;;;;;;50.07;13.87;95046.78;4978093;28;20035;-84
2021/06/25 06:19:52;;;;;;;23.42;6.63;;;;;;;49.73;14.20;95051.88;4963206;28;20043;-83
2021/06/25 06:33:33;;;;;;;31.02;7.60;;;;;;;48.95;15.21;95034.09;4969381;28;20049;-82
2021/06/25 06:36:00;;;;;;;27.15;7.57;;;;;;;48.26;15.43;95029.84;4966940;28;20426;-83
2021/06/25 06:38:28;;;;;;;47.42;8.85;;;;;;;48.45;15.74;95025.69;4979347;28;20498;-82
2021/06/25 06:40:53;;;;;;;28.98;7.28;;;;;;;48.51;15.28;95036.84;4961738;28;20053;-83
2021/06/25 06:43:19;;;;;;;34.08;8.93;;;;;;;48.75;15.06;95031.25;4999140;28;20034;-82
2021/06/25 06:45:44;;;;;;;29.58;8.05;;;;;;;48.37;15.49;95030.06;4998743;28;20069;-83
2021/06/25 06:48:10;;;;;;;54.78;9.75;;;;;;;48.70;15.05;95027.91;4981182;28;20034;-82
2021/06/25 06:50:35;;;;;;;30.45;6.82;;;;;;;47.97;16.05;95025.00;4967316;28;20038;-83
2021/06/25 06:53:01;;;;;;;29.70;7.20;;;;;;;47.74;16.04;95032.78;4984446;28;20030;-83
2021/06/25 06:55:26;;;;;;;26.17;6.75;;;;;;;47.56;16.37;95027.41;4982540;28;20034;-83
2021/06/25 06:57:52;;;;;;;26.13;6.65;;;;;;;48.18;15.71;95023.94;5001271;28;20038;-83
2021/06/25 07:00:18;;;;;;;27.33;6.15;;;;;;;48.31;15.84;95026.44;5000726;28;20045;-82
2021/06/25 07:02:44;;;;;;;39.60;7.78;;;;;;;48.26;15.90;95029.84;4998781;28;20042;-84
2021/06/25 07:05:11;;;;;;;26.13;6.97;;;;;;;47.78;15.99;95019.59;4966293;28;20110;-84
2021/06/25 07:07:37;;;;;;;26.30;7.32;;;;;;;47.34;16.70;95019.34;4983132;28;20583;-84
2021/06/25 07:10:04;;;;;;;17.10;5.55;;;;;;;46.75;17.42;95012.69;5001014;28;20038;-84
2021/06/25 07:12:30;;;;;;;20.48;6.20;;;;;;;46.05;17.86;95023.56;4950039;28;20042;-84
2021/06/25 07:15:21;;;;;;;20.58;6.25;;;;;;;45.70;18.57;95028.56;4999462;28;20034;-84
2021/06/25 07:17:46;;;;;;;24.55;7.75;;;;;;;44.97;19.11;95022.78;4999478;28;20094;-84
2021/06/25 07:20:12;;;;;;;24.55;6.93;;;;;;;44.47;19.46;95022.63;4997587;28;20033;-84
2021/06/25 07:22:38;;;;;;;29.13;7.30;;;;;;;43.97;20.13;95031.81;4963376;28;20446;-85
2021/06/25 07:25:03;;;;;;;23.15;6.57;;;;;;;43.45;21.20;95019.41;4998122;28;20066;-83
2021/06/25 07:27:29;;;;;;;13.20;5.55;;;;;;;42.91;21.32;95016.75;4983088;28;20076;-84
2021/06/25 07:29:54;;;;;;;29.92;6.50;;;;;;;42.42;22.29;95014.97;4980363;28;20093;-84
2021/06/25 07:32:20;;;;;;;18.10;7.03;;;;;;;41.94;22.71;95013.13;5208989;23;20050;-83
2021/06/25 07:34:45;;;;;;;19.98;6.40;;;;;;;41.59;23.40;95014.78;5009326;28;20084;-82
2021/06/25 07:37:11;;;;;;;18.25;6.13;;;;;;;41.23;23.46;95004.69;4991768;28;20045;-84
2021/06/25 07:39:36;;;;;;;26.80;7.47;;;;;;;40.90;24.01;95003.88;5016028;28;20049;-83
2021/06/25 07:42:02;;;;;;;20.35;6.50;;;;;;;40.56;24.51;95000.69;5011387;28;20028;-81
2021/06/25 07:44:28;;;;;;;46.45;8.80;;;;;;;40.23;25.22;94999.78;5011143;28;20057;-83
2021/06/25 07:46:55;;;;;;;38.35;8.98;;;;;;;39.77;25.97;95006.81;5039225;23;20049;-84
2021/06/25 07:49:27;;;;;;;24.45;6.35;;;;;;;39.52;25.91;95004.47;5017386;28;20615;-84
2021/06/25 07:51:52;;;;;;;36.22;8.77;;;;;;;39.27;26.55;95002.91;5017795;28;20048;-85
2021/06/25 07:54:17;;;;;;;21.98;6.53;;;;;;;38.96;27.19;94991.31;5019278;28;20029;-83
2021/06/25 07:56:43;;;;;;;46.70;9.27;;;;;;;38.66;27.41;94997.53;5018553;28;20038;-82
2021/06/25 07:59:08;;;;;;;30.83;7.60;;;;;;;38.34;27.93;94995.19;4985065;28;20488;-82
2021/06/25 08:01:34;;;;;;;26.88;7.55;;;;;;;38.08;28.07;94990.44;5000265;28;20026;-82
2021/06/25 08:04:00;;;;;;;30.17;7.25;;;;;;;37.88;28.58;94984.81;4985153;28;20041;-82
2021/06/25 08:06:27;;;;;;;19.98;7.15;;;;;;;37.79;29.03;94995.38;5000513;28;20056;-82
2021/06/25 08:11:32;;;;;;;36.53;9.00;;;;;;;37.24;30.33;94988.78;5035195;28;20042;-81
2021/06/25 08:13:57;;;;;;;28.27;8.57;;;;;;;37.07;29.65;94989.69;5035990;28;20063;-81
2021/06/25 08:19:06;;;;;;;;;;;;;;;36.72;30.21;94990.66;5030605;22;20112;-81
2021/06/25 08:21:32;;;;;;;23.05;6.95;;;;;;;36.49;30.93;94984.97;5015780;28;19928;-82
2021/06/25 08:23:57;;;;;;;27.58;7.60;;;;;;;36.24;31.47;94977.69;5017360;28;20041;-81
2021/06/25 08:26:23;;;;;;;25.52;7.03;;;;;;;36.12;31.39;94975.41;4998497;28;20445;-84
2021/06/25 08:28:49;;;;;;;20.27;7.30;;;;;;;35.97;31.78;94987.47;4992016;28;20087;-84
2021/06/25 08:31:15;;;;;;;24.30;7.63;;;;;;;35.87;31.46;94991.72;5000895;28;20111;-83
2021/06/25 08:33:56;;;;;;;26.20;7.40;;;;;;;35.78;31.23;94975.84;4985074;28;20086;-82
2021/06/25 08:36:24;;;;;;;32.00;7.38;;;;;;;35.69;31.55;94980.91;4983292;28;20034;-83
2021/06/25 08:38:49;;;;;;;24.50;7.65;;;;;;;35.61;31.48;94986.69;5017909;28;20072;-83
2021/06/25 08:41:15;;;;;;;28.13;7.25;;;;;;;35.53;31.24;94988.66;5016600;28;20038;-83
2021/06/25 08:43:40;;;;;;;26.88;8.13;;;;;;;35.42;30.61;94993.28;5018202;28;20038;-83
2021/06/25 08:46:06;;;;;;;27.70;7.38;;;;;;;35.32;31.37;94994.81;4982899;28;20033;-83
2021/06/25 08:48:32;;;;;;;25.00;7.47;;;;;;;35.22;30.97;94984.00;5000195;28;20041;-83
2021/06/25 08:50:58;;;;;;;37.38;7.82;;;;;;;35.14;31.52;94988.59;5001276;28;20071;-84
2021/06/25 08:53:27;;;;;;;34.70;7.35;;;;;;;34.98;32.32;94985.50;4981889;28;20034;-82
2021/06/25 08:56:17;;;;;;;20.73;6.75;;;;;;;34.81;32.33;94984.28;5016193;28;20034;-82
2021/06/25 08:58:43;;;;;;;34.28;7.40;;;;;;;34.71;31.91;94979.66;5017429;28;20041;-82
2021/06/25 09:01:09;;;;;;;26.55;7.47;;;;;;;34.61;32.93;94979.22;5012832;28;20026;-82
2021/06/25 09:03:37;;;;;;;33.22;7.68;;;;;;;34.50;32.94;94986.53;4998306;28;20038;-84
2021/06/25 09:06:10;;;;;;;24.65;7.05;;;;;;;34.49;32.35;94976.88;5000255;28;20505;-82
2021/06/25 09:08:35;;;;;;;23.02;7.40;;;;;;;34.53;33.11;94976.91;4999095;28;20077;-82
2021/06/25 09:11:02;;;;;;;34.72;7.32;;;;;;;34.48;33.32;94978.03;5018339;28;20029;-82
2021/06/25 09:13:36;;;;;;;27.33;7.15;;;;;;;34.40;33.45;94979.16;4997625;28;20067;-82
2021/06/25 09:16:02;;;;;;;22.23;6.35;;;;;;;34.32;33.96;94969.44;4999836;28;20029;-82
2021/06/25 09:18:28;;;;;;;33.63;8.55;;;;;;;34.25;33.29;94977.53;4983203;28;20041;-81
2021/06/25 09:20:53;;;;;;;29.63;7.80;;;;;;;34.24;33.57;94965.19;5000205;28;20022;-82
2021/06/25 09:23:34;;;;;;;22.67;6.95;;;;;;;34.23;32.45;94963.66;4983738;28;20034;-82
2021/06/25 09:26:05;;;;;;;36.03;8.77;;;;;;;34.17;32.01;94962.44;5020908;23;20041;-82
2021/06/25 09:28:41;;;;;;;25.80;6.75;;;;;;;34.03;32.03;94960.47;5006945;28;20140;-81
2021/06/25 09:31:22;;;;;;;26.35;7.05;;;;;;;33.99;32.11;94970.47;5007521;28;20060;-83
2021/06/25 09:33:57;;;;;;;29.70;7.90;;;;;;;33.95;32.76;94959.66;4973771;28;21071;-80
2021/06/25 09:36:25;;;;;;;36.10;7.68;;;;;;;33.97;32.89;94956.56;4999176;28;20098;-83
2021/06/25 09:39:01;;;;;;;33.83;7.97;;;;;;;33.91;33.27;94953.47;4999714;28;20034;-83
2021/06/25 09:41:27;;;;;;;27.08;7.32;;;;;;;33.86;33.74;94955.75;4995684;28;20049;-80
2021/06/25 09:43:59;;;;;;;24.27;6.93;;;;;;;33.77;34.32;94964.16;4983668;28;20050;-80
2021/06/25 09:46:29;;;;;;;29.83;7.25;;;;;;;33.71;33.73;94965.66;4985062;28;20049;-83
2021/06/25 09:48:56;;;;;;;46.72;8.20;;;;;;;33.69;33.44;94951.78;4998327;28;20038;-82
2021/06/25 09:51:36;;;;;;;43.33;8.30;;;;;;;33.62;32.96;94933.63;5001551;28;20050;-82
2021/06/25 09:54:17;;;;;;;40.60;8.10;;;;;;;33.72;31.57;94945.63;5000872;28;20034;-82
2021/06/25 09:59:53;;;;;;;31.05;8.13;;;;;;;33.76;31.65;94945.66;4985112;28;20085;-82
2021/06/25 10:02:21;;;;;;;36.53;7.43;;;;;;;33.74;31.95;94951.41;4985441;28;20069;-83
2021/06/25 10:05:08;;;;;;;35.25;7.38;;;;;;;33.70;31.41;94948.72;5000770;28;20403;-83
2021/06/25 10:07:34;;;;;;;41.47;7.95;;;;;;;33.60;30.68;94937.84;5047084;23;20065;-82
2021/06/25 10:10:02;;;;;;;30.00;7.25;;;;;;;33.59;30.67;94939.00;5021241;28;20425;-83
2021/06/25 10:12:28;;;;;;;44.05;7.18;;;;;;;33.50;30.01;94935.84;5021215;28;20046;-82
2021/06/25 10:14:54;;;;;;;46.58;7.55;;;;;;;33.40;29.45;94935.41;5003175;28;20053;-82
2021/06/25 10:17:21;;;;;;;35.90;7.28;;;;;;;33.34;30.57;94934.19;4970216;28;20102;-82
2021/06/25 10:19:54;;;;;;;24.70;7.35;;;;;;;33.29;29.95;94931.84;5001765;28;20074;-83
2021/06/25 10:22:24;;;;;;;40.65;7.25;;;;;;;33.40;27.81;94932.72;4972243;28;20076;-82
2021/06/25 10:24:50;;;;;;;43.55;7.53;;;;;;;33.48;28.89;94930.84;5019866;28;20084;-82
2021/06/25 10:27:20;;;;;;;33.20;7.30;;;;;;;33.44;28.71;94930.03;5022838;28;20038;-83
2021/06/25 10:29:45;;;;;;;46.30;7.07;;;;;;;33.36;29.05;94925.75;4987312;28;20041;-83
2021/06/25 10:32:11;;;;;;;32.40;7.30;;;;;;;33.32;29.04;94922.22;5021348;28;20076;-82
2021/06/25 10:34:37;;;;;;;36.40;7.80;;;;;;;33.35;31.14;94922.25;5022156;28;20425;-83
2021/06/25 10:37:28;;;;;;;52.33;8.15;;;;;;;33.33;30.41;94919.19;5002098;28;20077;-82
2021/06/25 10:40:24;;;;;;;36.97;7.53;;;;;;;33.29;30.63;94912.97;4987752;28;20038;-83
2021/06/25 10:42:50;;;;;;;41.67;7.38;;;;;;;33.33;28.26;94907.63;4999578;28;20301;-82
2021/06/25 10:45:15;;;;;;;30.48;8.07;;;;;;;33.33;30.29;94905.69;5010105;28;20030;-82
2021/06/25 10:47:59;;;;;;;35.78;7.90;;;;;;;33.28;30.55;94908.72;5012150;28;20033;-82
2021/06/25 10:50:25;;;;;;;40.17;7.13;;;;;;;33.24;28.69;94902.53;5001353;28;20096;-82
2021/06/25 10:53:12;;;;;;;34.72;7.20;;;;;;;33.21;29.07;94905.22;5019288;28;20084;-83
2021/06/25 10:55:46;;;;;;;45.67;8.27;;;;;;;33.19;28.83;94902.88;5019582;28;20121;-82
2021/06/25 10:58:22;;;;;;;39.03;7.93;;;;;;;33.11;29.55;94890.50;5018597;28;20034;-82
2021/06/25 11:00:56;;;;;;;48.70;7.95;;;;;;;33.09;28.20;94887.41;4976993;28;20101;-82
2021/06/25 11:03:48;;;;;;;53.33;7.85;;;;;;;32.98;27.35;94881.16;5017973;28;20022;-83
2021/06/25 11:09:00;;;;;;;36.40;7.60;;;;;;;33.02;28.44;94881.97;5144774;22;20058;-83
2021/06/25 11:11:25;;;;;;;39.30;7.20;;;;;;;32.94;28.56;94881.13;5025584;28;20029;-83
2021/06/25 11:13:51;;;;;;;45.75;7.50;;;;;;;32.91;30.25;94883.81;5018257;28;20441;-83
2021/06/25 11:16:20;;;;;;;37.53;7.57;;;;;;;32.85;29.61;94877.97;5020973;28;20030;-83
2021/06/25 11:18:46;;;;;;;30.80;7.63;;;;;;;32.82;27.23;94879.50;5018496;28;20512;-83
2021/06/25 11:21:11;;;;;;;38.35;8.25;;;;;;;32.96;28.30;94880.75;5018640;28;20026;-83
2021/06/25 11:23:37;;;;;;;34.55;8.32;;;;;;;32.98;28.90;94886.56;4978704;28;20037;-83
2021/06/25 11:26:14;;;;;;;36.00;8.37;;;;;;;32.94;28.27;94881.13;5145301;23;20045;-83
2021/06/25 11:28:43;;;;;;;41.72;8.35;;;;;;;32.91;28.59;94873.03;5020193;28;20277;-83
2021/06/25 11:31:19;;;;;;;56.85;8.80;;;;;;;32.89;25.19;94876.09;5001471;28;20432;-83
2021/06/25 11:33:51;;;;;;;29.40;7.28;;;;;;;32.95;25.60;94882.69;5002995;28;20034;-81
2021/06/25 11:36:48;;;;;;;54.60;8.30;;;;;;;32.93;26.69;94874.22;5018752;28;20053;-81
2021/06/25 11:39:32;;;;;;;45.03;8.02;;;;;;;32.92;27.49;94877.28;5019935;28;20050;-82
2021/06/25 11:42:01;;;;;;;62.85;8.30;;;;;;;32.89;27.92;94880.72;5020331;28;20030;-83
2021/06/25 11:44:36;;;;;;;33.47;6.97;;;;;;;32.86;29.24;94878.75;5002387;28;20121;-82
2021/06/25 11:47:15;;;;;;;51.75;7.88;;;;;;;32.88;27.35;94881.88;5019820;28;20077;-83
2021/06/25 11:49:59;;;;;;;47.13;8.40;;;;;;;32.84;25.52;94876.44;5001973;28;20409;-82
2021/06/25 11:52:29;;;;;;;37.67;8.30;;;;;;;32.80;27.30;94868.31;5001332;28;20026;-82
2021/06/25 11:54:56;;;;;;;44.22;7.68;;;;;;;32.83;25.22;94866.81;5001171;28;20113;-83